Terminal Aerodrome Forecast
Issued by NWS

Home | Current Version | Previous Version | Text Only | Print | Product List | Glossary On
Versions: 1 2 3 4 5 6 7 8 9 10 11 12 13 14 15 16 17 18 19 20
000
FTUS45 KABQ 240700 AAA
TAFSAF
TAF AMD
KSAF 240745Z 2408/2506 34012G20KT P6SM SKC
     FM241800 25010G17KT P6SM FEW250
     FM250200 26008KT P6SM SKC
     FM250400 VRB06KT P6SM SKC=

USA.gov is the U.S. government's official web portal to all federal, state and local government web resources and services.